sensor_id;sensor_type;location;lat;lon;timestamp;temperature;humidity
21676;DHT22;10999;51.332;9.458;2024-03-02T11:43:16;12.90;47.00
21676;DHT22;10999;51.332;9.458;2024-03-02T11:45:43;12.90;47.20
21676;DHT22;10999;51.332;9.458;2024-03-02T11:48:14;13.00;45.50
21676;DHT22;10999;51.332;9.458;2024-03-02T11:50:51;13.00;42.90
21676;DHT22;10999;51.332;9.458;2024-03-02T11:53:19;13.10;42.80
21676;DHT22;10999;51.332;9.458;2024-03-02T11:55:47;13.00;41.40
21676;DHT22;10999;51.332;9.458;2024-03-02T11:58:16;13.00;42.20
21676;DHT22;10999;51.332;9.458;2024-03-02T12:00:54;12.90;43.30
21676;DHT22;10999;51.332;9.458;2024-03-02T12:03:24;13.00;43.40
21676;DHT22;10999;51.332;9.458;2024-03-02T12:05:53;13.20;43.20
21676;DHT22;10999;51.332;9.458;2024-03-02T12:08:20;13.30;42.50
21676;DHT22;10999;51.332;9.458;2024-03-02T12:10:58;13.50;42.50
21676;DHT22;10999;51.332;9.458;2024-03-02T12:13:26;13.40;40.90
21676;DHT22;10999;51.332;9.458;2024-03-02T12:15:54;13.40;43.20
21676;DHT22;10999;51.332;9.458;2024-03-02T12:18:22;13.50;42.20
21676;DHT22;10999;51.332;9.458;2024-03-02T12:20:50;13.60;41.90
21676;DHT22;10999;51.332;9.458;2024-03-02T12:23:20;13.60;42.90
21676;DHT22;10999;51.332;9.458;2024-03-02T12:25:47;13.60;41.80
21676;DHT22;10999;51.332;9.458;2024-03-02T12:28:14;13.60;40.70
21676;DHT22;10999;51.332;9.458;2024-03-02T12:30:41;13.70;40.50
21676;DHT22;10999;51.332;9.458;2024-03-02T12:33:08;13.70;39.20
21676;DHT22;10999;51.332;9.458;2024-03-02T12:35:36;13.50;38.70
21676;DHT22;10999;51.332;9.458;2024-03-02T12:38:02;13.60;41.40
21676;DHT22;10999;51.332;9.458;2024-03-02T12:40:30;13.50;40.00
21676;DHT22;10999;51.332;9.458;2024-03-02T12:42:57;13.40;40.60
21676;DHT22;10999;51.332;9.458;2024-03-02T12:45:24;13.30;39.90
21676;DHT22;10999;51.332;9.458;2024-03-02T12:47:52;13.40;40.50
21676;DHT22;10999;51.332;9.458;2024-03-02T12:50:19;13.50;42.50
21676;DHT22;10999;51.332;9.458;2024-03-02T12:52:53;13.60;42.50
21676;DHT22;10999;51.332;9.458;2024-03-02T12:55:21;13.70;40.40
21676;DHT22;10999;51.332;9.458;2024-03-02T12:57:52;13.80;37.60
21676;DHT22;10999;51.332;9.458;2024-03-02T13:00:21;13.90;37.50
21676;DHT22;10999;51.332;9.458;2024-03-02T13:02:50;14.00;37.70
21676;DHT22;10999;51.332;9.458;2024-03-02T13:05:18;14.10;39.20
21676;DHT22;10999;51.332;9.458;2024-03-02T13:07:47;14.20;37.60
21676;DHT22;10999;51.332;9.458;2024-03-02T13:10:14;14.20;38.20
21676;DHT22;10999;51.332;9.458;2024-03-02T13:12:42;14.10;36.00
21676;DHT22;10999;51.332;9.458;2024-03-02T13:15:09;14.10;35.70
21676;DHT22;10999;51.332;9.458;2024-03-02T13:17:41;14.10;35.70
21676;DHT22;10999;51.332;9.458;2024-03-02T13:20:08;14.10;35.90
21676;DHT22;10999;51.332;9.458;2024-03-02T13:22:37;14.10;35.60
21676;DHT22;10999;51.332;9.458;2024-03-02T13:25:04;14.10;37.10
21676;DHT22;10999;51.332;9.458;2024-03-02T13:27:32;14.00;34.10
21676;DHT22;10999;51.332;9.458;2024-03-02T13:30:00;14.00;34.90
21676;DHT22;10999;51.332;9.458;2024-03-02T13:32:26;14.00;35.90
21676;DHT22;10999;51.332;9.458;2024-03-02T13:34:53;14.00;35.10
21676;DHT22;10999;51.332;9.458;2024-03-02T13:37:23;14.10;34.50
21676;DHT22;10999;51.332;9.458;2024-03-02T13:39:50;14.00;32.80
21676;DHT22;10999;51.332;9.458;2024-03-02T13:42:17;14.00;34.70
21676;DHT22;10999;51.332;9.458;2024-03-02T13:44:44;14.00;32.20
21676;DHT22;10999;51.332;9.458;2024-03-02T13:47:16;13.90;33.50
21676;DHT22;10999;51.332;9.458;2024-03-02T13:49:43;14.00;33.10
21676;DHT22;10999;51.332;9.458;2024-03-02T13:52:14;14.00;34.10
21676;DHT22;10999;51.332;9.458;2024-03-02T13:54:43;14.00;33.00
21676;DHT22;10999;51.332;9.458;2024-03-02T13:57:10;14.00;31.60
21676;DHT22;10999;51.332;9.458;2024-03-02T13:59:38;14.00;32.20
21676;DHT22;10999;51.332;9.458;2024-03-02T14:02:05;13.90;31.30
21676;DHT22;10999;51.332;9.458;2024-03-02T14:04:36;14.00;31.60
21676;DHT22;10999;51.332;9.458;2024-03-02T14:07:04;13.90;32.70
21676;DHT22;10999;51.332;9.458;2024-03-02T14:09:34;13.90;31.00
21676;DHT22;10999;51.332;9.458;2024-03-02T14:12:02;13.90;30.50
21676;DHT22;10999;51.332;9.458;2024-03-02T14:14:29;13.90;32.40
21676;DHT22;10999;51.332;9.458;2024-03-02T14:16:56;14.10;31.90
21676;DHT22;10999;51.332;9.458;2024-03-02T14:19:23;14.20;30.80
21676;DHT22;10999;51.332;9.458;2024-03-02T14:21:49;14.30;29.60
21676;DHT22;10999;51.332;9.458;2024-03-02T14:24:16;14.30;29.00
21676;DHT22;10999;51.332;9.458;2024-03-02T14:26:43;14.40;29.40
21676;DHT22;10999;51.332;9.458;2024-03-02T14:29:10;14.40;29.00
21676;DHT22;10999;51.332;9.458;2024-03-02T14:31:38;14.40;28.90
21676;DHT22;10999;51.332;9.458;2024-03-02T14:34:04;14.30;27.70
21676;DHT22;10999;51.332;9.458;2024-03-02T14:36:31;14.30;27.50
21676;DHT22;10999;51.332;9.458;2024-03-02T14:38:58;14.20;26.90
21676;DHT22;10999;51.332;9.458;2024-03-02T14:41:25;14.20;27.60
21676;DHT22;10999;51.332;9.458;2024-03-02T14:43:52;14.10;28.50
21676;DHT22;10999;51.332;9.458;2024-03-02T14:46:19;14.10;28.80
21676;DHT22;10999;51.332;9.458;2024-03-02T14:48:46;14.10;28.50
21676;DHT22;10999;51.332;9.458;2024-03-02T14:51:14;14.10;28.80
21676;DHT22;10999;51.332;9.458;2024-03-02T14:53:41;14.20;29.90
21676;DHT22;10999;51.332;9.458;2024-03-02T14:56:08;14.30;29.80
21676;DHT22;10999;51.332;9.458;2024-03-02T14:58:35;14.30;29.70
21676;DHT22;10999;51.332;9.458;2024-03-02T15:01:03;14.40;29.40
21676;DHT22;10999;51.332;9.458;2024-03-02T15:03:32;14.50;29.80
21676;DHT22;10999;51.332;9.458;2024-03-02T15:05:59;14.50;29.40
21676;DHT22;10999;51.332;9.458;2024-03-02T15:08:26;14.40;30.90
21676;DHT22;10999;51.332;9.458;2024-03-02T15:10:53;14.30;30.50
21676;DHT22;10999;51.332;9.458;2024-03-02T15:13:23;14.30;31.40
21676;DHT22;10999;51.332;9.458;2024-03-02T15:15:50;14.20;31.20
21676;DHT22;10999;51.332;9.458;2024-03-02T15:18:17;14.00;30.80
21676;DHT22;10999;51.332;9.458;2024-03-02T15:20:44;13.90;31.90
21676;DHT22;10999;51.332;9.458;2024-03-02T15:23:11;13.90;32.00
21676;DHT22;10999;51.332;9.458;2024-03-02T15:25:38;13.80;31.00
21676;DHT22;10999;51.332;9.458;2024-03-02T15:28:05;13.70;31.60
21676;DHT22;10999;51.332;9.458;2024-03-02T15:30:32;13.70;31.50
21676;DHT22;10999;51.332;9.458;2024-03-02T15:32:59;13.70;32.00
21676;DHT22;10999;51.332;9.458;2024-03-02T15:35:26;13.60;31.50
21676;DHT22;10999;51.332;9.458;2024-03-02T15:37:53;13.60;32.10
21676;DHT22;10999;51.332;9.458;2024-03-02T15:40:19;13.60;32.50
21676;DHT22;10999;51.332;9.458;2024-03-02T15:42:46;13.60;33.10
21676;DHT22;10999;51.332;9.458;2024-03-02T15:45:13;13.60;33.60
21676;DHT22;10999;51.332;9.458;2024-03-02T15:47:40;13.60;34.40
21676;DHT22;10999;51.332;9.458;2024-03-02T15:50:07;13.60;33.10
21676;DHT22;10999;51.332;9.458;2024-03-02T15:52:34;13.60;33.10
21676;DHT22;10999;51.332;9.458;2024-03-02T15:55:01;13.50;32.50
21676;DHT22;10999;51.332;9.458;2024-03-02T15:57:33;13.40;33.20
21676;DHT22;10999;51.332;9.458;2024-03-02T16:00:00;13.40;33.20
21676;DHT22;10999;51.332;9.458;2024-03-02T16:02:27;13.40;33.10
21676;DHT22;10999;51.332;9.458;2024-03-02T16:04:53;13.30;32.50
21676;DHT22;10999;51.332;9.458;2024-03-02T16:07:20;13.30;32.40
21676;DHT22;10999;51.332;9.458;2024-03-02T16:09:47;13.30;32.70
21676;DHT22;10999;51.332;9.458;2024-03-02T16:12:14;13.20;33.20
21676;DHT22;10999;51.332;9.458;2024-03-02T16:14:41;13.20;33.60
21676;DHT22;10999;51.332;9.458;2024-03-02T16:17:08;13.10;34.80
21676;DHT22;10999;51.332;9.458;2024-03-02T16:19:36;13.00;34.40
21676;DHT22;10999;51.332;9.458;2024-03-02T16:22:06;13.00;34.00
21676;DHT22;10999;51.332;9.458;2024-03-02T16:24:34;13.00;35.30
21676;DHT22;10999;51.332;9.458;2024-03-02T16:27:01;12.90;35.70
21676;DHT22;10999;51.332;9.458;2024-03-02T16:29:28;12.90;35.30
21676;DHT22;10999;51.332;9.458;2024-03-02T16:31:55;12.80;35.30
21676;DHT22;10999;51.332;9.458;2024-03-02T16:34:22;12.80;35.20
21676;DHT22;10999;51.332;9.458;2024-03-02T16:36:49;12.80;35.80
21676;DHT22;10999;51.332;9.458;2024-03-02T16:39:16;12.80;35.70
21676;DHT22;10999;51.332;9.458;2024-03-02T16:41:42;12.70;36.10
21676;DHT22;10999;51.332;9.458;2024-03-02T16:44:13;12.60;36.00
21676;DHT22;10999;51.332;9.458;2024-03-02T16:46:40;12.60;36.40
21676;DHT22;10999;51.332;9.458;2024-03-02T16:49:07;12.60;36.50
21676;DHT22;10999;51.332;9.458;2024-03-02T16:51:42;12.50;36.50
21676;DHT22;10999;51.332;9.458;2024-03-02T16:54:08;12.50;36.80
21676;DHT22;10999;51.332;9.458;2024-03-02T16:56:39;12.40;37.10
21676;DHT22;10999;51.332;9.458;2024-03-02T16:59:07;12.40;37.70
21676;DHT22;10999;51.332;9.458;2024-03-02T17:01:33;12.30;37.50
21676;DHT22;10999;51.332;9.458;2024-03-02T17:04:00;12.30;37.50
21676;DHT22;10999;51.332;9.458;2024-03-02T17:06:28;12.20;37.40
21676;DHT22;10999;51.332;9.458;2024-03-02T17:08:55;12.20;38.00
21676;DHT22;10999;51.332;9.458;2024-03-02T17:11:22;12.10;38.20
21676;DHT22;10999;51.332;9.458;2024-03-02T17:13:49;12.00;38.50
21676;DHT22;10999;51.332;9.458;2024-03-02T17:16:18;11.90;38.70
21676;DHT22;10999;51.332;9.458;2024-03-02T17:18:45;11.80;39.10
21676;DHT22;10999;51.332;9.458;2024-03-02T17:21:12;11.80;39.20
21676;DHT22;10999;51.332;9.458;2024-03-02T17:23:39;11.70;39.40
21676;DHT22;10999;51.332;9.458;2024-03-02T17:26:06;11.60;40.10
21676;DHT22;10999;51.332;9.458;2024-03-02T17:28:32;11.50;39.80
21676;DHT22;10999;51.332;9.458;2024-03-02T17:31:00;11.50;40.00
21676;DHT22;10999;51.332;9.458;2024-03-02T17:33:27;11.50;39.90
21676;DHT22;10999;51.332;9.458;2024-03-02T17:35:54;11.40;39.30
21676;DHT22;10999;51.332;9.458;2024-03-02T17:38:21;11.40;39.40
21676;DHT22;10999;51.332;9.458;2024-03-02T17:40:47;11.40;39.50
21676;DHT22;10999;51.332;9.458;2024-03-02T17:43:14;11.30;39.10
21676;DHT22;10999;51.332;9.458;2024-03-02T17:45:41;11.30;38.70
21676;DHT22;10999;51.332;9.458;2024-03-02T17:48:08;11.30;38.80
21676;DHT22;10999;51.332;9.458;2024-03-02T17:50:36;11.20;39.50
21676;DHT22;10999;51.332;9.458;2024-03-02T17:53:02;11.10;39.70
21676;DHT22;10999;51.332;9.458;2024-03-02T17:55:29;11.00;39.90
21676;DHT22;10999;51.332;9.458;2024-03-02T17:57:57;10.90;40.00
21676;DHT22;10999;51.332;9.458;2024-03-02T18:00:24;10.90;40.60
21676;DHT22;10999;51.332;9.458;2024-03-02T18:02:51;10.80;41.40
21676;DHT22;10999;51.332;9.458;2024-03-02T18:05:17;10.70;42.20
21676;DHT22;10999;51.332;9.458;2024-03-02T18:07:44;10.60;42.20
21676;DHT22;10999;51.332;9.458;2024-03-02T18:10:11;10.50;42.70
21676;DHT22;10999;51.332;9.458;2024-03-02T18:12:38;10.50;43.00
21676;DHT22;10999;51.332;9.458;2024-03-02T18:15:08;10.40;43.40
21676;DHT22;10999;51.332;9.458;2024-03-02T18:17:35;10.30;43.70
21676;DHT22;10999;51.332;9.458;2024-03-02T18:20:03;10.20;44.50
21676;DHT22;10999;51.332;9.458;2024-03-02T18:22:33;10.10;45.30
21676;DHT22;10999;51.332;9.458;2024-03-02T18:25:01;10.00;46.20
21676;DHT22;10999;51.332;9.458;2024-03-02T18:27:28;9.90;46.50
21676;DHT22;10999;51.332;9.458;2024-03-02T18:29:55;9.80;47.00
21676;DHT22;10999;51.332;9.458;2024-03-02T18:32:22;9.70;47.70
21676;DHT22;10999;51.332;9.458;2024-03-02T18:34:49;9.70;47.90
21676;DHT22;10999;51.332;9.458;2024-03-02T18:37:16;9.60;48.00
21676;DHT22;10999;51.332;9.458;2024-03-02T18:39:48;9.50;48.50
21676;DHT22;10999;51.332;9.458;2024-03-02T18:42:16;9.50;49.10
21676;DHT22;10999;51.332;9.458;2024-03-02T18:44:42;9.50;49.20
21676;DHT22;10999;51.332;9.458;2024-03-02T18:47:09;9.40;49.30
21676;DHT22;10999;51.332;9.458;2024-03-02T18:49:42;9.30;50.50
21676;DHT22;10999;51.332;9.458;2024-03-02T18:52:11;9.20;50.30
21676;DHT22;10999;51.332;9.458;2024-03-02T18:54:40;9.10;51.30
21676;DHT22;10999;51.332;9.458;2024-03-02T18:57:08;9.00;52.30
21676;DHT22;10999;51.332;9.458;2024-03-02T18:59:36;8.90;53.40
21676;DHT22;10999;51.332;9.458;2024-03-02T19:02:03;8.80;54.20
21676;DHT22;10999;51.332;9.458;2024-03-02T19:04:31;8.70;55.10
21676;DHT22;10999;51.332;9.458;2024-03-02T19:06:57;8.60;56.00
21676;DHT22;10999;51.332;9.458;2024-03-02T19:09:24;8.50;56.80
21676;DHT22;10999;51.332;9.458;2024-03-02T19:11:51;8.40;57.40
21676;DHT22;10999;51.332;9.458;2024-03-02T19:14:18;8.30;58.20
21676;DHT22;10999;51.332;9.458;2024-03-02T19:16:44;8.30;59.40
21676;DHT22;10999;51.332;9.458;2024-03-02T19:19:11;8.20;59.90
21676;DHT22;10999;51.332;9.458;2024-03-02T19:21:38;8.10;60.60
21676;DHT22;10999;51.332;9.458;2024-03-02T19:24:05;8.00;61.20
21676;DHT22;10999;51.332;9.458;2024-03-02T19:26:32;7.90;61.80
21676;DHT22;10999;51.332;9.458;2024-03-02T19:28:59;7.90;62.40
21676;DHT22;10999;51.332;9.458;2024-03-02T19:31:25;7.80;62.80
21676;DHT22;10999;51.332;9.458;2024-03-02T19:33:52;7.70;63.20
21676;DHT22;10999;51.332;9.458;2024-03-02T19:36:19;7.60;63.60
21676;DHT22;10999;51.332;9.458;2024-03-02T19:38:46;7.50;64.00
21676;DHT22;10999;51.332;9.458;2024-03-02T19:41:13;7.50;64.60
21676;DHT22;10999;51.332;9.458;2024-03-02T19:43:40;7.40;65.10
21676;DHT22;10999;51.332;9.458;2024-03-02T19:46:06;7.30;65.90
21676;DHT22;10999;51.332;9.458;2024-03-02T19:48:33;7.30;66.60
21676;DHT22;10999;51.332;9.458;2024-03-02T19:51:00;7.20;67.10
21676;DHT22;10999;51.332;9.458;2024-03-02T19:53:27;7.20;67.60
21676;DHT22;10999;51.332;9.458;2024-03-02T19:55:53;7.10;68.20
21676;DHT22;10999;51.332;9.458;2024-03-02T19:58:20;7.10;68.70
21676;DHT22;10999;51.332;9.458;2024-03-02T20:00:47;7.10;69.20
21676;DHT22;10999;51.332;9.458;2024-03-02T20:03:14;7.10;69.50
21676;DHT22;10999;51.332;9.458;2024-03-02T20:05:41;7.00;69.90
21676;DHT22;10999;51.332;9.458;2024-03-02T20:08:08;6.90;70.20
21676;DHT22;10999;51.332;9.458;2024-03-02T20:10:34;6.80;70.40
21676;DHT22;10999;51.332;9.458;2024-03-02T20:13:01;6.80;70.70
21676;DHT22;10999;51.332;9.458;2024-03-02T20:15:31;6.70;70.80
21676;DHT22;10999;51.332;9.458;2024-03-02T20:17:58;6.70;71.20
21676;DHT22;10999;51.332;9.458;2024-03-02T20:20:25;6.60;71.50
21676;DHT22;10999;51.332;9.458;2024-03-02T20:22:52;6.60;71.80
21676;DHT22;10999;51.332;9.458;2024-03-02T20:25:18;6.50;72.10
21676;DHT22;10999;51.332;9.458;2024-03-02T20:27:45;6.50;72.60
21676;DHT22;10999;51.332;9.458;2024-03-02T20:30:13;6.40;72.80
21676;DHT22;10999;51.332;9.458;2024-03-02T20:32:40;6.30;73.10
21676;DHT22;10999;51.332;9.458;2024-03-02T20:35:07;6.30;73.60
21676;DHT22;10999;51.332;9.458;2024-03-02T20:37:34;6.20;73.80
21676;DHT22;10999;51.332;9.458;2024-03-02T20:40:01;6.20;74.20
21676;DHT22;10999;51.332;9.458;2024-03-02T20:42:27;6.10;74.70
21676;DHT22;10999;51.332;9.458;2024-03-02T20:44:54;6.20;75.00
21676;DHT22;10999;51.332;9.458;2024-03-02T20:47:21;6.10;75.60
21676;DHT22;10999;51.332;9.458;2024-03-02T20:49:49;6.10;75.70
21676;DHT22;10999;51.332;9.458;2024-03-02T20:52:17;6.00;75.90
21676;DHT22;10999;51.332;9.458;2024-03-02T20:54:44;6.00;76.20
21676;DHT22;10999;51.332;9.458;2024-03-02T20:57:19;5.90;76.50
21676;DHT22;10999;51.332;9.458;2024-03-02T20:59:46;5.90;76.80
21676;DHT22;10999;51.332;9.458;2024-03-02T21:02:13;5.90;77.20
21676;DHT22;10999;51.332;9.458;2024-03-02T21:04:40;5.80;77.20
21676;DHT22;10999;51.332;9.458;2024-03-02T21:07:08;5.80;77.30
21676;DHT22;10999;51.332;9.458;2024-03-02T21:09:35;5.70;77.70
21676;DHT22;10999;51.332;9.458;2024-03-02T21:12:02;5.70;78.40
21676;DHT22;10999;51.332;9.458;2024-03-02T21:14:31;5.70;79.00
21676;DHT22;10999;51.332;9.458;2024-03-02T21:16:58;5.70;79.20
21676;DHT22;10999;51.332;9.458;2024-03-02T21:19:25;5.70;79.70
21676;DHT22;10999;51.332;9.458;2024-03-02T21:21:52;5.60;79.80
21676;DHT22;10999;51.332;9.458;2024-03-02T21:24:20;5.60;80.30
21676;DHT22;10999;51.332;9.458;2024-03-02T21:26:47;5.60;80.60
21676;DHT22;10999;51.332;9.458;2024-03-02T21:29:16;5.50;80.60
21676;DHT22;10999;51.332;9.458;2024-03-02T21:31:50;5.50;81.00
21676;DHT22;10999;51.332;9.458;2024-03-02T21:34:17;5.40;81.20
21676;DHT22;10999;51.332;9.458;2024-03-02T21:36:44;5.40;81.30
21676;DHT22;10999;51.332;9.458;2024-03-02T21:39:11;5.40;81.60
21676;DHT22;10999;51.332;9.458;2024-03-02T21:41:38;5.30;81.70
21676;DHT22;10999;51.332;9.458;2024-03-02T21:44:05;5.30;82.00
21676;DHT22;10999;51.332;9.458;2024-03-02T21:46:32;5.30;82.20
21676;DHT22;10999;51.332;9.458;2024-03-02T21:48:59;5.20;82.20
21676;DHT22;10999;51.332;9.458;2024-03-02T21:51:26;5.20;82.50
21676;DHT22;10999;51.332;9.458;2024-03-02T21:53:53;5.10;82.60
21676;DHT22;10999;51.332;9.458;2024-03-02T21:56:21;5.10;82.80
21676;DHT22;10999;51.332;9.458;2024-03-02T21:58:48;5.10;83.40
21676;DHT22;10999;51.332;9.458;2024-03-02T22:01:15;5.00;84.50
21676;DHT22;10999;51.332;9.458;2024-03-02T22:03:42;5.00;85.00
21676;DHT22;10999;51.332;9.458;2024-03-02T22:06:15;5.00;85.20
21676;DHT22;10999;51.332;9.458;2024-03-02T22:08:42;5.00;85.50
21676;DHT22;10999;51.332;9.458;2024-03-02T22:11:08;5.00;85.60
21676;DHT22;10999;51.332;9.458;2024-03-02T22:13:37;4.90;85.70
21676;DHT22;10999;51.332;9.458;2024-03-02T22:16:05;4.90;86.00
21676;DHT22;10999;51.332;9.458;2024-03-02T22:18:32;4.90;86.40
21676;DHT22;10999;51.332;9.458;2024-03-02T22:20:59;4.80;86.50
21676;DHT22;10999;51.332;9.458;2024-03-02T22:23:26;4.90;86.90
21676;DHT22;10999;51.332;9.458;2024-03-02T22:26:05;4.80;88.10
21676;DHT22;10999;51.332;9.458;2024-03-02T22:29:54;4.80;87.50
21676;DHT22;10999;51.332;9.458;2024-03-02T22:33:35;4.70;87.70
21676;DHT22;10999;51.332;9.458;2024-03-02T22:37:00;4.70;87.80
21676;DHT22;10999;51.332;9.458;2024-03-02T22:51:55;4.50;90.20
21676;DHT22;10999;51.332;9.458;2024-03-02T22:55:10;4.50;90.80
21676;DHT22;10999;51.332;9.458;2024-03-02T22:59:26;4.50;91.00
21676;DHT22;10999;51.332;9.458;2024-03-02T23:03:36;4.50;91.30
21676;DHT22;10999;51.332;9.458;2024-03-02T23:08:05;4.40;91.30
21676;DHT22;10999;51.332;9.458;2024-03-02T23:51:12;4.30;91.90
21676;DHT22;10999;51.332;9.458;2024-03-02T23:53:40;4.40;93.10
